sensor_id;sensor_type;location;lat;lon;timestamp;P1;durP1;ratioP1;P2;durP2;ratioP2
57599;SDS011;43426;43.594;24.334;2023-03-24T00:02:02;45.25;;;30.05;;
57599;SDS011;43426;43.594;24.334;2023-03-24T00:04:28;48.25;;;28.80;;
57599;SDS011;43426;43.594;24.334;2023-03-24T00:06:54;44.72;;;28.13;;
57599;SDS011;43426;43.594;24.334;2023-03-24T00:09:20;54.40;;;32.05;;
57599;SDS011;43426;43.594;24.334;2023-03-24T00:11:45;58.88;;;33.05;;
57599;SDS011;43426;43.594;24.334;2023-03-24T00:14:12;53.08;;;30.25;;
57599;SDS011;43426;43.594;24.334;2023-03-24T00:16:38;51.15;;;30.88;;
57599;SDS011;43426;43.594;24.334;2023-03-24T00:19:07;53.70;;;30.25;;
57599;SDS011;43426;43.594;24.334;2023-03-24T00:21:34;55.13;;;30.73;;
57599;SDS011;43426;43.594;24.334;2023-03-24T00:24:01;52.35;;;29.30;;
57599;SDS011;43426;43.594;24.334;2023-03-24T00:26:28;52.25;;;28.85;;
57599;SDS011;43426;43.594;24.334;2023-03-24T00:28:54;39.55;;;25.35;;
57599;SDS011;43426;43.594;24.334;2023-03-24T00:31:21;36.75;;;24.85;;
57599;SDS011;43426;43.594;24.334;2023-03-24T00:33:48;36.65;;;26.42;;
57599;SDS011;43426;43.594;24.334;2023-03-24T00:36:15;36.78;;;25.13;;
57599;SDS011;43426;43.594;24.334;2023-03-24T00:38:43;40.22;;;25.70;;
57599;SDS011;43426;43.594;24.334;2023-03-24T00:41:11;31.88;;;24.23;;
57599;SDS011;43426;43.594;24.334;2023-03-24T00:43:37;31.90;;;23.70;;
57599;SDS011;43426;43.594;24.334;2023-03-24T00:46:05;34.08;;;24.30;;
57599;SDS011;43426;43.594;24.334;2023-03-24T00:48:35;34.53;;;26.33;;
57599;SDS011;43426;43.594;24.334;2023-03-24T00:51:02;43.97;;;29.35;;
57599;SDS011;43426;43.594;24.334;2023-03-24T00:53:30;45.35;;;30.85;;
57599;SDS011;43426;43.594;24.334;2023-03-24T00:55:56;47.35;;;28.80;;
57599;SDS011;43426;43.594;24.334;2023-03-24T00:58:22;43.80;;;29.10;;
57599;SDS011;43426;43.594;24.334;2023-03-24T01:00:52;40.38;;;27.77;;
57599;SDS011;43426;43.594;24.334;2023-03-24T01:03:20;40.10;;;28.15;;
57599;SDS011;43426;43.594;24.334;2023-03-24T01:05:50;32.08;;;25.20;;
57599;SDS011;43426;43.594;24.334;2023-03-24T01:08:18;37.35;;;26.88;;
57599;SDS011;43426;43.594;24.334;2023-03-24T01:10:44;36.53;;;24.65;;
57599;SDS011;43426;43.594;24.334;2023-03-24T01:13:18;44.05;;;25.33;;
57599;SDS011;43426;43.594;24.334;2023-03-24T01:15:48;45.53;;;26.80;;
57599;SDS011;43426;43.594;24.334;2023-03-24T01:18:14;42.20;;;27.00;;
57599;SDS011;43426;43.594;24.334;2023-03-24T01:20:41;42.30;;;24.70;;
57599;SDS011;43426;43.594;24.334;2023-03-24T01:23:11;45.50;;;27.67;;
57599;SDS011;43426;43.594;24.334;2023-03-24T01:25:39;44.78;;;28.23;;
57599;SDS011;43426;43.594;24.334;2023-03-24T01:28:09;41.95;;;27.90;;
57599;SDS011;43426;43.594;24.334;2023-03-24T01:30:35;59.65;;;27.05;;
57599;SDS011;43426;43.594;24.334;2023-03-24T01:33:01;43.77;;;26.53;;
57599;SDS011;43426;43.594;24.334;2023-03-24T01:35:26;50.47;;;26.60;;
57599;SDS011;43426;43.594;24.334;2023-03-24T01:37:52;43.78;;;26.80;;
57599;SDS011;43426;43.594;24.334;2023-03-24T01:40:18;41.85;;;25.05;;
57599;SDS011;43426;43.594;24.334;2023-03-24T01:42:49;45.83;;;24.92;;
57599;SDS011;43426;43.594;24.334;2023-03-24T01:47:58;37.15;;;22.17;;
57599;SDS011;43426;43.594;24.334;2023-03-24T01:50:24;33.92;;;21.08;;
57599;SDS011;43426;43.594;24.334;2023-03-24T01:52:50;36.65;;;21.52;;
57599;SDS011;43426;43.594;24.334;2023-03-24T01:55:16;31.35;;;20.98;;
57599;SDS011;43426;43.594;24.334;2023-03-24T01:57:47;31.98;;;22.98;;
57599;SDS011;43426;43.594;24.334;2023-03-24T02:00:17;31.08;;;20.38;;
57599;SDS011;43426;43.594;24.334;2023-03-24T02:02:48;23.65;;;19.17;;
57599;SDS011;43426;43.594;24.334;2023-03-24T02:05:19;32.05;;;22.00;;
57599;SDS011;43426;43.594;24.334;2023-03-24T02:10:36;33.00;;;22.85;;
57599;SDS011;43426;43.594;24.334;2023-03-24T02:15:29;34.63;;;21.55;;
57599;SDS011;43426;43.594;24.334;2023-03-24T02:46:13;31.63;;;21.17;;
57599;SDS011;43426;43.594;24.334;2023-03-24T02:48:47;38.35;;;22.33;;
57599;SDS011;43426;43.594;24.334;2023-03-24T02:56:21;28.90;;;20.60;;
57599;SDS011;43426;43.594;24.334;2023-03-24T02:59:31;34.25;;;20.08;;
57599;SDS011;43426;43.594;24.334;2023-03-24T03:02:01;28.73;;;20.05;;
57599;SDS011;43426;43.594;24.334;2023-03-24T03:04:31;26.20;;;18.92;;
57599;SDS011;43426;43.594;24.334;2023-03-24T03:07:02;28.50;;;19.08;;
57599;SDS011;43426;43.594;24.334;2023-03-24T03:09:34;29.75;;;21.35;;
57599;SDS011;43426;43.594;24.334;2023-03-24T03:12:04;31.52;;;21.35;;
57599;SDS011;43426;43.594;24.334;2023-03-24T03:14:35;32.47;;;22.92;;
57599;SDS011;43426;43.594;24.334;2023-03-24T03:17:12;35.67;;;23.25;;
57599;SDS011;43426;43.594;24.334;2023-03-24T03:19:44;35.70;;;23.55;;
57599;SDS011;43426;43.594;24.334;2023-03-24T03:22:17;31.77;;;22.05;;
57599;SDS011;43426;43.594;24.334;2023-03-24T03:24:48;29.63;;;20.73;;
57599;SDS011;43426;43.594;24.334;2023-03-24T03:27:21;27.17;;;19.35;;
57599;SDS011;43426;43.594;24.334;2023-03-24T03:29:54;25.02;;;19.10;;
57599;SDS011;43426;43.594;24.334;2023-03-24T03:32:26;24.88;;;19.38;;
57599;SDS011;43426;43.594;24.334;2023-03-24T03:34:58;30.48;;;19.60;;
57599;SDS011;43426;43.594;24.334;2023-03-24T03:43:02;36.75;;;23.40;;
57599;SDS011;43426;43.594;24.334;2023-03-24T03:45:29;32.63;;;22.58;;
57599;SDS011;43426;43.594;24.334;2023-03-24T03:47:54;32.28;;;22.08;;
57599;SDS011;43426;43.594;24.334;2023-03-24T03:50:20;30.00;;;21.00;;
57599;SDS011;43426;43.594;24.334;2023-03-24T03:52:46;45.13;;;25.30;;
57599;SDS011;43426;43.594;24.334;2023-03-24T03:55:12;43.40;;;24.55;;
57599;SDS011;43426;43.594;24.334;2023-03-24T03:57:38;40.67;;;22.05;;
57599;SDS011;43426;43.594;24.334;2023-03-24T04:00:05;37.05;;;23.58;;
57599;SDS011;43426;43.594;24.334;2023-03-24T04:16:21;30.90;;;20.45;;
57599;SDS011;43426;43.594;24.334;2023-03-24T04:24:21;34.30;;;22.70;;
57599;SDS011;43426;43.594;24.334;2023-03-24T04:35:00;23.77;;;18.38;;
57599;SDS011;43426;43.594;24.334;2023-03-24T04:37:31;26.83;;;18.83;;
57599;SDS011;43426;43.594;24.334;2023-03-24T04:40:02;22.13;;;17.40;;
57599;SDS011;43426;43.594;24.334;2023-03-24T04:42:36;21.48;;;15.80;;
57599;SDS011;43426;43.594;24.334;2023-03-24T04:45:06;26.05;;;17.80;;
57599;SDS011;43426;43.594;24.334;2023-03-24T04:47:33;32.13;;;20.85;;
57599;SDS011;43426;43.594;24.334;2023-03-24T04:50:07;22.20;;;17.17;;
57599;SDS011;43426;43.594;24.334;2023-03-24T04:52:35;21.35;;;16.58;;
57599;SDS011;43426;43.594;24.334;2023-03-24T04:55:16;28.40;;;18.83;;
57599;SDS011;43426;43.594;24.334;2023-03-24T04:57:45;21.38;;;15.65;;
57599;SDS011;43426;43.594;24.334;2023-03-24T05:00:11;23.60;;;17.10;;
57599;SDS011;43426;43.594;24.334;2023-03-24T05:05:02;19.92;;;15.57;;
57599;SDS011;43426;43.594;24.334;2023-03-24T05:07:28;18.38;;;15.25;;
57599;SDS011;43426;43.594;24.334;2023-03-24T05:09:53;23.53;;;15.93;;
57599;SDS011;43426;43.594;24.334;2023-03-24T05:12:19;24.13;;;17.90;;
57599;SDS011;43426;43.594;24.334;2023-03-24T05:14:44;29.23;;;19.42;;
57599;SDS011;43426;43.594;24.334;2023-03-24T05:17:10;27.55;;;18.63;;
57599;SDS011;43426;43.594;24.334;2023-03-24T05:19:35;30.57;;;20.57;;
57599;SDS011;43426;43.594;24.334;2023-03-24T05:22:01;29.85;;;21.13;;
57599;SDS011;43426;43.594;24.334;2023-03-24T05:24:26;29.73;;;21.05;;
57599;SDS011;43426;43.594;24.334;2023-03-24T05:26:52;31.27;;;19.27;;
57599;SDS011;43426;43.594;24.334;2023-03-24T05:29:17;25.10;;;19.53;;
57599;SDS011;43426;43.594;24.334;2023-03-24T05:31:42;32.10;;;22.00;;
57599;SDS011;43426;43.594;24.334;2023-03-24T05:36:34;28.17;;;20.85;;
57599;SDS011;43426;43.594;24.334;2023-03-24T05:38:59;37.60;;;23.08;;
57599;SDS011;43426;43.594;24.334;2023-03-24T05:41:25;34.13;;;23.80;;
57599;SDS011;43426;43.594;24.334;2023-03-24T05:43:50;29.80;;;20.23;;
57599;SDS011;43426;43.594;24.334;2023-03-24T05:46:16;22.83;;;19.27;;
57599;SDS011;43426;43.594;24.334;2023-03-24T05:48:41;25.90;;;17.92;;
57599;SDS011;43426;43.594;24.334;2023-03-24T05:51:07;26.00;;;19.05;;
57599;SDS011;43426;43.594;24.334;2023-03-24T05:53:33;26.17;;;18.30;;
57599;SDS011;43426;43.594;24.334;2023-03-24T05:55:58;22.33;;;18.02;;
57599;SDS011;43426;43.594;24.334;2023-03-24T05:58:24;22.05;;;17.75;;
57599;SDS011;43426;43.594;24.334;2023-03-24T06:00:49;27.00;;;18.63;;
57599;SDS011;43426;43.594;24.334;2023-03-24T06:03:15;26.33;;;18.27;;
57599;SDS011;43426;43.594;24.334;2023-03-24T06:05:42;19.48;;;16.15;;
57599;SDS011;43426;43.594;24.334;2023-03-24T06:08:09;19.33;;;16.08;;
57599;SDS011;43426;43.594;24.334;2023-03-24T06:13:01;17.33;;;15.43;;
57599;SDS011;43426;43.594;24.334;2023-03-24T06:15:26;23.92;;;15.77;;
57599;SDS011;43426;43.594;24.334;2023-03-24T06:17:52;17.08;;;14.57;;
57599;SDS011;43426;43.594;24.334;2023-03-24T06:20:18;17.63;;;15.32;;
57599;SDS011;43426;43.594;24.334;2023-03-24T06:22:44;19.50;;;15.75;;
57599;SDS011;43426;43.594;24.334;2023-03-24T06:25:11;16.70;;;14.57;;
57599;SDS011;43426;43.594;24.334;2023-03-24T06:27:42;18.63;;;15.85;;
57599;SDS011;43426;43.594;24.334;2023-03-24T06:30:12;22.65;;;16.02;;
57599;SDS011;43426;43.594;24.334;2023-03-24T06:32:39;17.55;;;15.75;;
57599;SDS011;43426;43.594;24.334;2023-03-24T06:35:06;20.95;;;16.67;;
57599;SDS011;43426;43.594;24.334;2023-03-24T06:37:31;22.25;;;17.25;;
57599;SDS011;43426;43.594;24.334;2023-03-24T06:39:57;19.52;;;16.13;;
57599;SDS011;43426;43.594;24.334;2023-03-24T06:42:22;23.35;;;16.70;;
57599;SDS011;43426;43.594;24.334;2023-03-24T06:44:48;17.17;;;15.45;;
57599;SDS011;43426;43.594;24.334;2023-03-24T06:47:15;17.42;;;15.55;;
57599;SDS011;43426;43.594;24.334;2023-03-24T06:49:40;16.02;;;14.32;;
57599;SDS011;43426;43.594;24.334;2023-03-24T06:52:06;18.58;;;14.23;;
57599;SDS011;43426;43.594;24.334;2023-03-24T06:54:31;15.65;;;14.10;;
57599;SDS011;43426;43.594;24.334;2023-03-24T06:56:56;16.98;;;15.30;;
57599;SDS011;43426;43.594;24.334;2023-03-24T06:59:22;16.38;;;14.18;;
57599;SDS011;43426;43.594;24.334;2023-03-24T07:01:51;16.05;;;14.35;;
57599;SDS011;43426;43.594;24.334;2023-03-24T07:04:17;19.30;;;16.23;;
57599;SDS011;43426;43.594;24.334;2023-03-24T07:06:43;15.93;;;14.27;;
57599;SDS011;43426;43.594;24.334;2023-03-24T07:11:36;16.90;;;14.93;;
57599;SDS011;43426;43.594;24.334;2023-03-24T07:16:26;16.80;;;15.00;;
57599;SDS011;43426;43.594;24.334;2023-03-24T07:21:17;15.77;;;14.00;;
57599;SDS011;43426;43.594;24.334;2023-03-24T07:26:08;16.70;;;14.50;;
57599;SDS011;43426;43.594;24.334;2023-03-24T07:31:02;15.50;;;13.85;;
57599;SDS011;43426;43.594;24.334;2023-03-24T07:33:29;14.48;;;13.18;;
57599;SDS011;43426;43.594;24.334;2023-03-24T07:35:55;15.23;;;13.82;;
57599;SDS011;43426;43.594;24.334;2023-03-24T07:40:46;14.38;;;12.93;;
57599;SDS011;43426;43.594;24.334;2023-03-24T07:45:37;19.40;;;14.10;;
57599;SDS011;43426;43.594;24.334;2023-03-24T07:50:28;16.40;;;14.70;;
57599;SDS011;43426;43.594;24.334;2023-03-24T07:52:54;15.40;;;13.77;;
57599;SDS011;43426;43.594;24.334;2023-03-24T07:57:46;19.23;;;13.73;;
57599;SDS011;43426;43.594;24.334;2023-03-24T08:00:12;15.48;;;13.90;;
57599;SDS011;43426;43.594;24.334;2023-03-24T08:02:51;15.70;;;14.10;;
57599;SDS011;43426;43.594;24.334;2023-03-24T08:05:18;15.68;;;14.07;;
57599;SDS011;43426;43.594;24.334;2023-03-24T08:07:46;14.75;;;13.27;;
57599;SDS011;43426;43.594;24.334;2023-03-24T08:10:23;15.45;;;13.95;;
57599;SDS011;43426;43.594;24.334;2023-03-24T08:12:51;15.40;;;14.00;;
57599;SDS011;43426;43.594;24.334;2023-03-24T08:17:42;16.13;;;14.43;;
57599;SDS011;43426;43.594;24.334;2023-03-24T08:22:36;16.13;;;14.50;;
57599;SDS011;43426;43.594;24.334;2023-03-24T08:25:03;14.73;;;13.32;;
57599;SDS011;43426;43.594;24.334;2023-03-24T08:27:30;15.80;;;13.75;;
57599;SDS011;43426;43.594;24.334;2023-03-24T08:29:56;25.02;;;13.55;;
57599;SDS011;43426;43.594;24.334;2023-03-24T08:32:21;14.98;;;13.68;;
57599;SDS011;43426;43.594;24.334;2023-03-24T08:34:47;15.65;;;13.50;;
57599;SDS011;43426;43.594;24.334;2023-03-24T08:37:12;14.20;;;12.90;;
57599;SDS011;43426;43.594;24.334;2023-03-24T08:39:38;13.77;;;11.95;;
57599;SDS011;43426;43.594;24.334;2023-03-24T08:42:03;12.18;;;11.10;;
57599;SDS011;43426;43.594;24.334;2023-03-24T08:44:29;11.65;;;10.63;;
57599;SDS011;43426;43.594;24.334;2023-03-24T08:46:54;13.52;;;12.25;;
57599;SDS011;43426;43.594;24.334;2023-03-24T08:49:19;13.50;;;12.13;;
57599;SDS011;43426;43.594;24.334;2023-03-24T08:51:45;13.95;;;12.57;;
57599;SDS011;43426;43.594;24.334;2023-03-24T08:54:11;14.20;;;13.00;;
57599;SDS011;43426;43.594;24.334;2023-03-24T08:56:37;13.13;;;11.93;;
57599;SDS011;43426;43.594;24.334;2023-03-24T08:59:05;13.63;;;12.35;;
57599;SDS011;43426;43.594;24.334;2023-03-24T09:01:31;12.13;;;11.13;;
57599;SDS011;43426;43.594;24.334;2023-03-24T09:03:59;13.90;;;12.00;;
57599;SDS011;43426;43.594;24.334;2023-03-24T09:06:25;12.77;;;11.45;;
57599;SDS011;43426;43.594;24.334;2023-03-24T09:08:51;13.10;;;11.80;;
57599;SDS011;43426;43.594;24.334;2023-03-24T09:11:18;13.20;;;12.00;;
57599;SDS011;43426;43.594;24.334;2023-03-24T09:13:45;12.95;;;11.85;;
57599;SDS011;43426;43.594;24.334;2023-03-24T09:16:12;13.32;;;11.95;;
57599;SDS011;43426;43.594;24.334;2023-03-24T09:18:38;13.25;;;11.95;;
57599;SDS011;43426;43.594;24.334;2023-03-24T09:21:04;12.68;;;11.48;;
57599;SDS011;43426;43.594;24.334;2023-03-24T09:23:30;12.52;;;11.18;;
57599;SDS011;43426;43.594;24.334;2023-03-24T09:25:56;13.10;;;11.80;;
57599;SDS011;43426;43.594;24.334;2023-03-24T09:28:22;11.95;;;10.70;;
57599;SDS011;43426;43.594;24.334;2023-03-24T09:30:48;31.42;;;10.77;;
57599;SDS011;43426;43.594;24.334;2023-03-24T09:33:13;11.10;;;10.30;;
57599;SDS011;43426;43.594;24.334;2023-03-24T09:35:39;11.18;;;10.32;;
57599;SDS011;43426;43.594;24.334;2023-03-24T09:38:05;11.50;;;10.60;;
57599;SDS011;43426;43.594;24.334;2023-03-24T09:40:34;9.43;;;8.65;;
57599;SDS011;43426;43.594;24.334;2023-03-24T09:45:49;7.93;;;7.25;;
57599;SDS011;43426;43.594;24.334;2023-03-24T09:48:18;9.70;;;8.80;;
57599;SDS011;43426;43.594;24.334;2023-03-24T09:50:58;8.77;;;7.90;;
57599;SDS011;43426;43.594;24.334;2023-03-24T09:56:17;8.80;;;8.00;;
57599;SDS011;43426;43.594;24.334;2023-03-24T09:58:46;7.70;;;7.00;;
57599;SDS011;43426;43.594;24.334;2023-03-24T10:01:16;7.95;;;7.10;;
57599;SDS011;43426;43.594;24.334;2023-03-24T10:03:43;7.28;;;6.68;;
57599;SDS011;43426;43.594;24.334;2023-03-24T10:08:40;6.82;;;6.32;;
57599;SDS011;43426;43.594;24.334;2023-03-24T10:22:17;10.45;;;7.90;;
57599;SDS011;43426;43.594;24.334;2023-03-24T10:27:30;8.95;;;8.10;;
57599;SDS011;43426;43.594;24.334;2023-03-24T10:30:20;57.65;;;38.50;;
57599;SDS011;43426;43.594;24.334;2023-03-24T10:32:58;15.75;;;12.73;;
57599;SDS011;43426;43.594;24.334;2023-03-24T10:35:24;14.00;;;12.68;;
57599;SDS011;43426;43.594;24.334;2023-03-24T10:38:02;7.82;;;7.20;;
57599;SDS011;43426;43.594;24.334;2023-03-24T10:40:35;6.30;;;5.90;;
57599;SDS011;43426;43.594;24.334;2023-03-24T10:43:01;7.13;;;6.53;;
57599;SDS011;43426;43.594;24.334;2023-03-24T10:45:31;8.93;;;8.10;;
57599;SDS011;43426;43.594;24.334;2023-03-24T10:47:59;8.93;;;8.23;;
57599;SDS011;43426;43.594;24.334;2023-03-24T10:50:26;8.40;;;7.70;;
57599;SDS011;43426;43.594;24.334;2023-03-24T10:52:54;8.10;;;7.45;;
57599;SDS011;43426;43.594;24.334;2023-03-24T10:55:21;8.43;;;7.72;;
57599;SDS011;43426;43.594;24.334;2023-03-24T10:57:54;8.73;;;8.02;;
57599;SDS011;43426;43.594;24.334;2023-03-24T11:03:23;8.13;;;7.63;;
57599;SDS011;43426;43.594;24.334;2023-03-24T11:05:42;6.68;;;6.07;;
57599;SDS011;43426;43.594;24.334;2023-03-24T11:10:55;7.72;;;7.03;;
57599;SDS011;43426;43.594;24.334;2023-03-24T11:18:35;6.05;;;5.55;;
57599;SDS011;43426;43.594;24.334;2023-03-24T11:21:01;6.35;;;5.75;;
57599;SDS011;43426;43.594;24.334;2023-03-24T11:23:37;6.03;;;5.38;;
57599;SDS011;43426;43.594;24.334;2023-03-24T11:26:19;6.75;;;6.25;;
57599;SDS011;43426;43.594;24.334;2023-03-24T11:28:50;6.20;;;5.80;;
57599;SDS011;43426;43.594;24.334;2023-03-24T11:31:25;6.50;;;6.00;;
57599;SDS011;43426;43.594;24.334;2023-03-24T11:34:01;8.00;;;5.35;;
57599;SDS011;43426;43.594;24.334;2023-03-24T11:39:25;5.40;;;5.00;;
57599;SDS011;43426;43.594;24.334;2023-03-24T11:47:21;4.93;;;4.55;;
57599;SDS011;43426;43.594;24.334;2023-03-24T11:52:39;4.88;;;4.55;;
57599;SDS011;43426;43.594;24.334;2023-03-24T12:03:38;3.35;;;3.15;;
57599;SDS011;43426;43.594;24.334;2023-03-24T12:06:13;4.07;;;3.80;;
57599;SDS011;43426;43.594;24.334;2023-03-24T12:08:44;5.53;;;5.13;;
57599;SDS011;43426;43.594;24.334;2023-03-24T12:13:56;8.27;;;5.85;;
57599;SDS011;43426;43.594;24.334;2023-03-24T12:16:39;6.03;;;5.40;;
57599;SDS011;43426;43.594;24.334;2023-03-24T12:19:31;5.60;;;5.20;;
57599;SDS011;43426;43.594;24.334;2023-03-24T12:41:34;3.20;;;3.00;;
57599;SDS011;43426;43.594;24.334;2023-03-24T12:44:09;3.55;;;3.35;;
57599;SDS011;43426;43.594;24.334;2023-03-24T12:55:22;3.13;;;2.90;;
57599;SDS011;43426;43.594;24.334;2023-03-24T12:57:57;2.65;;;2.45;;
57599;SDS011;43426;43.594;24.334;2023-03-24T13:00:31;2.67;;;2.47;;
57599;SDS011;43426;43.594;24.334;2023-03-24T13:03:03;3.00;;;2.80;;
57599;SDS011;43426;43.594;24.334;2023-03-24T13:05:38;2.70;;;2.22;;
57599;SDS011;43426;43.594;24.334;2023-03-24T13:08:20;2.90;;;2.70;;
57599;SDS011;43426;43.594;24.334;2023-03-24T13:10:53;2.45;;;2.30;;
57599;SDS011;43426;43.594;24.334;2023-03-24T13:13:27;2.55;;;2.35;;
57599;SDS011;43426;43.594;24.334;2023-03-24T13:16:00;4.60;;;4.20;;
57599;SDS011;43426;43.594;24.334;2023-03-24T13:18:40;2.20;;;2.10;;
57599;SDS011;43426;43.594;24.334;2023-03-24T13:21:21;2.78;;;2.58;;
57599;SDS011;43426;43.594;24.334;2023-03-24T13:23:54;2.67;;;2.47;;
57599;SDS011;43426;43.594;24.334;2023-03-24T13:32:05;3.00;;;2.80;;
57599;SDS011;43426;43.594;24.334;2023-03-24T13:34:37;3.03;;;2.83;;
57599;SDS011;43426;43.594;24.334;2023-03-24T13:37:06;2.90;;;2.70;;
57599;SDS011;43426;43.594;24.334;2023-03-24T13:39:37;3.38;;;2.78;;
57599;SDS011;43426;43.594;24.334;2023-03-24T13:42:03;3.35;;;3.05;;
57599;SDS011;43426;43.594;24.334;2023-03-24T13:47:13;3.15;;;2.90;;
57599;SDS011;43426;43.594;24.334;2023-03-24T13:49:42;2.88;;;2.67;;
57599;SDS011;43426;43.594;24.334;2023-03-24T13:52:35;3.13;;;2.90;;
57599;SDS011;43426;43.594;24.334;2023-03-24T13:55:08;3.78;;;3.25;;
57599;SDS011;43426;43.594;24.334;2023-03-24T13:57:41;4.93;;;3.30;;
57599;SDS011;43426;43.594;24.334;2023-03-24T14:00:19;3.40;;;3.20;;
57599;SDS011;43426;43.594;24.334;2023-03-24T14:02:48;5.05;;;3.30;;
57599;SDS011;43426;43.594;24.334;2023-03-24T14:07:50;4.28;;;3.92;;
57599;SDS011;43426;43.594;24.334;2023-03-24T14:15:31;3.67;;;3.40;;
57599;SDS011;43426;43.594;24.334;2023-03-24T14:23:34;3.03;;;2.83;;
57599;SDS011;43426;43.594;24.334;2023-03-24T14:26:11;3.58;;;2.88;;
57599;SDS011;43426;43.594;24.334;2023-03-24T14:28:39;3.85;;;3.25;;
57599;SDS011;43426;43.594;24.334;2023-03-24T14:31:08;3.22;;;3.03;;
57599;SDS011;43426;43.594;24.334;2023-03-24T14:37:02;3.58;;;2.95;;
57599;SDS011;43426;43.594;24.334;2023-03-24T14:44:57;3.63;;;3.33;;
57599;SDS011;43426;43.594;24.334;2023-03-24T14:47:25;3.15;;;2.95;;
57599;SDS011;43426;43.594;24.334;2023-03-24T14:49:54;3.25;;;3.05;;
57599;SDS011;43426;43.594;24.334;2023-03-24T14:52:26;3.15;;;2.72;;
57599;SDS011;43426;43.594;24.334;2023-03-24T14:57:39;2.78;;;2.58;;
57599;SDS011;43426;43.594;24.334;2023-03-24T15:02:39;4.43;;;2.80;;
57599;SDS011;43426;43.594;24.334;2023-03-24T15:07:39;2.88;;;2.58;;
57599;SDS011;43426;43.594;24.334;2023-03-24T15:10:05;4.38;;;2.85;;
57599;SDS011;43426;43.594;24.334;2023-03-24T15:12:39;3.05;;;2.50;;
57599;SDS011;43426;43.594;24.334;2023-03-24T15:15:22;8.65;;;3.33;;
57599;SDS011;43426;43.594;24.334;2023-03-24T15:17:49;3.70;;;3.40;;
57599;SDS011;43426;43.594;24.334;2023-03-24T15:20:29;5.75;;;2.72;;
57599;SDS011;43426;43.594;24.334;2023-03-24T15:23:06;21.17;;;4.20;;
57599;SDS011;43426;43.594;24.334;2023-03-24T15:25:32;6.03;;;3.40;;
57599;SDS011;43426;43.594;24.334;2023-03-24T15:27:58;3.75;;;3.45;;
57599;SDS011;43426;43.594;24.334;2023-03-24T15:30:23;2.92;;;2.72;;
57599;SDS011;43426;43.594;24.334;2023-03-24T15:32:50;2.80;;;2.60;;
57599;SDS011;43426;43.594;24.334;2023-03-24T15:35:22;3.40;;;3.10;;
57599;SDS011;43426;43.594;24.334;2023-03-24T15:37:49;2.90;;;2.70;;
57599;SDS011;43426;43.594;24.334;2023-03-24T15:42:55;27.38;;;19.20;;
57599;SDS011;43426;43.594;24.334;2023-03-24T15:47:51;11.82;;;10.63;;
57599;SDS011;43426;43.594;24.334;2023-03-24T15:53:05;31.23;;;20.15;;
57599;SDS011;43426;43.594;24.334;2023-03-24T15:55:32;30.45;;;20.75;;
57599;SDS011;43426;43.594;24.334;2023-03-24T15:58:00;54.08;;;34.00;;
57599;SDS011;43426;43.594;24.334;2023-03-24T16:00:42;30.98;;;22.85;;
57599;SDS011;43426;43.594;24.334;2023-03-24T16:03:09;91.03;;;58.95;;
57599;SDS011;43426;43.594;24.334;2023-03-24T16:05:45;69.70;;;47.08;;
57599;SDS011;43426;43.594;24.334;2023-03-24T16:08:25;22.25;;;15.85;;
57599;SDS011;43426;43.594;24.334;2023-03-24T16:11:05;13.68;;;10.73;;
57599;SDS011;43426;43.594;24.334;2023-03-24T16:13:36;8.38;;;7.57;;
57599;SDS011;43426;43.594;24.334;2023-03-24T16:18:35;12.27;;;8.65;;
57599;SDS011;43426;43.594;24.334;2023-03-24T16:21:07;9.50;;;8.65;;
57599;SDS011;43426;43.594;24.334;2023-03-24T16:23:34;11.48;;;9.10;;
57599;SDS011;43426;43.594;24.334;2023-03-24T16:26:00;8.95;;;8.18;;
57599;SDS011;43426;43.594;24.334;2023-03-24T16:28:25;8.73;;;7.72;;
57599;SDS011;43426;43.594;24.334;2023-03-24T16:30:54;8.93;;;8.18;;
57599;SDS011;43426;43.594;24.334;2023-03-24T16:33:28;20.25;;;10.35;;
57599;SDS011;43426;43.594;24.334;2023-03-24T16:35:54;15.43;;;9.63;;
57599;SDS011;43426;43.594;24.334;2023-03-24T16:38:20;17.50;;;10.73;;
57599;SDS011;43426;43.594;24.334;2023-03-24T16:40:53;13.80;;;9.35;;
57599;SDS011;43426;43.594;24.334;2023-03-24T16:43:20;24.08;;;15.30;;
57599;SDS011;43426;43.594;24.334;2023-03-24T16:45:46;26.45;;;12.50;;
57599;SDS011;43426;43.594;24.334;2023-03-24T16:48:13;26.42;;;18.23;;
57599;SDS011;43426;43.594;24.334;2023-03-24T16:50:41;31.23;;;18.10;;
57599;SDS011;43426;43.594;24.334;2023-03-24T16:53:09;44.08;;;20.05;;
57599;SDS011;43426;43.594;24.334;2023-03-24T16:55:35;40.40;;;21.33;;
57599;SDS011;43426;43.594;24.334;2023-03-24T16:58:01;31.85;;;20.38;;
57599;SDS011;43426;43.594;24.334;2023-03-24T17:02:54;38.80;;;26.13;;
57599;SDS011;43426;43.594;24.334;2023-03-24T17:05:21;30.83;;;22.50;;
57599;SDS011;43426;43.594;24.334;2023-03-24T17:07:49;35.00;;;22.65;;
57599;SDS011;43426;43.594;24.334;2023-03-24T17:10:16;44.05;;;28.90;;
57599;SDS011;43426;43.594;24.334;2023-03-24T17:15:08;78.13;;;49.13;;
57599;SDS011;43426;43.594;24.334;2023-03-24T17:17:40;62.53;;;40.47;;
57599;SDS011;43426;43.594;24.334;2023-03-24T17:22:31;41.55;;;25.55;;
57599;SDS011;43426;43.594;24.334;2023-03-24T17:27:23;30.05;;;20.20;;
57599;SDS011;43426;43.594;24.334;2023-03-24T17:32:14;31.63;;;17.95;;
57599;SDS011;43426;43.594;24.334;2023-03-24T17:37:09;24.15;;;17.20;;
57599;SDS011;43426;43.594;24.334;2023-03-24T17:42:00;23.00;;;14.95;;
57599;SDS011;43426;43.594;24.334;2023-03-24T17:46:52;20.73;;;15.43;;
57599;SDS011;43426;43.594;24.334;2023-03-24T17:51:43;21.15;;;16.80;;
57599;SDS011;43426;43.594;24.334;2023-03-24T17:56:35;26.60;;;18.55;;
57599;SDS011;43426;43.594;24.334;2023-03-24T18:01:27;35.97;;;22.40;;
57599;SDS011;43426;43.594;24.334;2023-03-24T18:06:19;37.50;;;22.98;;
57599;SDS011;43426;43.594;24.334;2023-03-24T18:11:13;35.15;;;23.40;;
57599;SDS011;43426;43.594;24.334;2023-03-24T18:13:39;31.55;;;22.25;;
57599;SDS011;43426;43.594;24.334;2023-03-24T18:16:06;65.50;;;36.40;;
57599;SDS011;43426;43.594;24.334;2023-03-24T18:18:33;46.22;;;28.02;;
57599;SDS011;43426;43.594;24.334;2023-03-24T18:20:59;47.63;;;29.27;;
57599;SDS011;43426;43.594;24.334;2023-03-24T18:23:24;46.20;;;26.55;;
57599;SDS011;43426;43.594;24.334;2023-03-24T18:25:56;43.42;;;27.30;;
57599;SDS011;43426;43.594;24.334;2023-03-24T18:28:23;38.42;;;25.42;;
57599;SDS011;43426;43.594;24.334;2023-03-24T18:30:48;38.67;;;22.10;;
57599;SDS011;43426;43.594;24.334;2023-03-24T18:35:40;30.85;;;21.73;;
57599;SDS011;43426;43.594;24.334;2023-03-24T18:38:05;35.78;;;20.63;;
57599;SDS011;43426;43.594;24.334;2023-03-24T18:40:31;31.58;;;20.45;;
57599;SDS011;43426;43.594;24.334;2023-03-24T18:42:57;37.40;;;20.67;;
57599;SDS011;43426;43.594;24.334;2023-03-24T18:45:22;40.78;;;21.10;;
57599;SDS011;43426;43.594;24.334;2023-03-24T18:47:48;27.00;;;20.40;;
57599;SDS011;43426;43.594;24.334;2023-03-24T18:52:38;33.67;;;22.15;;
57599;SDS011;43426;43.594;24.334;2023-03-24T18:55:05;37.03;;;22.92;;
57599;SDS011;43426;43.594;24.334;2023-03-24T18:57:31;30.70;;;20.92;;
57599;SDS011;43426;43.594;24.334;2023-03-24T19:00:00;30.95;;;19.55;;
57599;SDS011;43426;43.594;24.334;2023-03-24T19:02:25;25.60;;;18.30;;